createdAt,value
2017-11-04T00:00:08.296Z,0
2017-11-04T00:01:07.718Z,0
2017-11-04T00:02:08.343Z,0
2017-11-04T00:03:08.787Z,0
2017-11-04T00:04:08.356Z,0
2017-11-04T00:05:07.785Z,0
2017-11-04T00:06:08.001Z,0
2017-11-04T00:07:07.689Z,0
2017-11-04T00:08:08.634Z,0
2017-11-04T00:09:07.664Z,0
2017-11-04T00:10:08.837Z,0
2017-11-04T00:11:07.972Z,0
2017-11-04T00:12:08.301Z,0
2017-11-04T00:13:08.296Z,0
2017-11-04T00:14:08.648Z,0
2017-11-04T00:15:08.474Z,0
2017-11-04T00:16:07.963Z,0
2017-11-04T00:17:07.943Z,0
2017-11-04T00:18:08.570Z,0
2017-11-04T00:19:08.302Z,0
2017-11-04T00:20:08.523Z,0
2017-11-04T00:21:08.256Z,0
2017-11-04T00:22:08.262Z,0
2017-11-04T00:23:08.245Z,0
2017-11-04T00:24:07.935Z,0
2017-11-04T00:25:08.667Z,0
2017-11-04T00:26:08.579Z,0
2017-11-04T00:27:08.389Z,0
2017-11-04T00:28:08.234Z,0
2017-11-04T00:29:07.876Z,0
2017-11-04T00:30:08.348Z,0
2017-11-04T00:31:08.197Z,0
2017-11-04T00:32:07.864Z,0
2017-11-04T00:33:07.870Z,0
2017-11-04T00:34:07.867Z,0
2017-11-04T00:35:07.540Z,0
2017-11-04T00:36:08.169Z,0
2017-11-04T00:37:08.482Z,0
2017-11-04T00:38:07.822Z,0
2017-11-04T00:39:08.136Z,0
2017-11-04T00:40:08.809Z,0
2017-11-04T00:41:07.816Z,0
2017-11-04T00:42:08.143Z,0
2017-11-04T00:43:07.839Z,0
2017-11-04T00:44:09.314Z,0
2017-11-04T00:45:08.714Z,0
2017-11-04T00:46:08.442Z,0
2017-11-04T00:47:07.460Z,0
2017-11-04T00:48:08.103Z,0
2017-11-04T00:49:07.439Z,0
2017-11-04T00:50:07.787Z,0
2017-11-04T00:51:08.070Z,0
2017-11-04T00:52:08.428Z,0
2017-11-04T00:53:08.125Z,0
2017-11-04T00:54:07.414Z,0
2017-11-04T00:55:08.216Z,0
2017-11-04T00:56:08.384Z,0
2017-11-04T00:57:08.401Z,0
2017-11-04T00:58:08.354Z,0
2017-11-04T00:59:08.029Z,0
2017-11-04T01:00:07.784Z,0
2017-11-04T01:01:08.037Z,0
2017-11-04T01:02:07.058Z,0
2017-11-04T01:03:08.363Z,0
2017-11-04T01:04:08.054Z,0
2017-11-04T01:05:08.129Z,0
2017-11-04T01:06:07.680Z,0
2017-11-04T01:07:07.336Z,0
2017-11-04T01:08:07.980Z,0
2017-11-04T01:09:08.314Z,0
2017-11-04T01:10:08.076Z,0
2017-11-04T01:11:08.314Z,0
2017-11-04T01:12:07.652Z,0
2017-11-04T01:13:07.639Z,0
2017-11-04T01:14:08.492Z,0
2017-11-04T01:15:08.577Z,0
2017-11-04T01:16:07.662Z,0
2017-11-04T01:17:07.280Z,0
2017-11-04T01:18:07.943Z,0
2017-11-04T01:19:08.229Z,0
2017-11-04T01:20:08.046Z,0
2017-11-04T01:21:07.582Z,0
2017-11-04T01:22:08.236Z,0
2017-11-04T01:23:07.902Z,0
2017-11-04T01:24:07.882Z,0
2017-11-04T01:25:07.233Z,0
2017-11-04T01:26:07.881Z,0
2017-11-04T01:27:07.866Z,0
2017-11-04T01:28:06.904Z,0
2017-11-04T01:29:08.068Z,0
2017-11-04T01:30:07.567Z,0
2017-11-04T01:31:07.854Z,0
2017-11-04T01:32:07.850Z,0
2017-11-04T01:33:07.849Z,0
2017-11-04T01:34:07.551Z,0
2017-11-04T01:35:07.518Z,0
2017-11-04T01:36:08.078Z,0
2017-11-04T01:37:07.812Z,0
2017-11-04T01:38:07.486Z,0
2017-11-04T01:39:07.477Z,0
2017-11-04T01:40:08.143Z,0
2017-11-04T01:41:07.154Z,0
2017-11-04T01:42:08.107Z,0
2017-11-04T01:43:07.470Z,0
2017-11-04T01:44:09.090Z,0
2017-11-04T01:45:08.396Z,0
2017-11-04T01:46:08.092Z,0
2017-11-04T01:47:07.437Z,0
2017-11-04T01:48:07.439Z,0
2017-11-04T01:49:07.431Z,0
2017-11-04T01:50:07.757Z,0
2017-11-04T01:51:08.061Z,0
2017-11-04T01:52:08.051Z,0
2017-11-04T01:53:07.725Z,0
2017-11-04T01:54:08.062Z,0
2017-11-04T01:55:07.788Z,0
2017-11-04T01:56:07.402Z,0
2017-11-04T01:57:08.050Z,0
2017-11-04T01:58:07.710Z,0
2017-11-04T01:59:07.706Z,0
2017-11-04T02:00:07.379Z,0
2017-11-04T02:01:07.683Z,0
2017-11-04T02:02:07.354Z,0
2017-11-04T02:03:07.665Z,0
2017-11-04T02:04:07.997Z,0
2017-11-04T02:05:07.681Z,0
2017-11-04T02:06:07.672Z,0
2017-11-04T02:07:07.645Z,0
2017-11-04T02:08:07.317Z,0
2017-11-04T02:09:06.990Z,0
2017-11-04T02:10:08.110Z,0
2017-11-04T02:11:07.958Z,0
2017-11-04T02:12:07.630Z,0
2017-11-04T02:13:07.631Z,0
2017-11-04T02:14:07.941Z,0
2017-11-04T02:15:07.291Z,0
2017-11-04T02:16:07.607Z,0
2017-11-04T02:17:07.263Z,0
2017-11-04T02:18:07.272Z,0
2017-11-04T02:19:07.259Z,0
2017-11-04T02:20:07.585Z,0
2017-11-04T02:21:07.573Z,0
2017-11-04T02:22:07.563Z,0
2017-11-04T02:23:07.558Z,0
2017-11-04T02:24:07.546Z,0
2017-11-04T02:25:07.645Z,0
2017-11-04T02:26:07.224Z,0
2017-11-04T02:27:07.557Z,0
2017-11-04T02:28:07.860Z,0
2017-11-04T02:29:07.561Z,0
2017-11-04T02:30:07.199Z,0
2017-11-04T02:31:07.861Z,0
2017-11-04T02:32:07.863Z,0
2017-11-04T02:33:07.183Z,0
2017-11-04T02:34:07.500Z,0
2017-11-04T02:35:07.914Z,0
2017-11-04T02:36:07.498Z,0
2017-11-04T02:37:07.171Z,0
2017-11-04T02:38:07.483Z,0
2017-11-04T02:39:07.472Z,0
2017-11-04T02:40:07.545Z,0
2017-11-04T02:41:07.453Z,0
2017-11-04T02:42:07.776Z,0
2017-11-04T02:43:07.149Z,0
2017-11-04T02:44:07.119Z,0
2017-11-04T02:45:09.968Z,0
2017-11-04T02:46:07.435Z,0
2017-11-04T02:47:07.106Z,0
2017-11-04T02:48:07.738Z,0
2017-11-04T02:49:07.419Z,0
2017-11-04T02:50:07.451Z,0
2017-11-04T02:51:07.723Z,0
2017-11-04T02:52:07.725Z,0
2017-11-04T02:53:07.384Z,0
2017-11-04T02:54:07.711Z,0
2017-11-04T02:55:07.396Z,0
2017-11-04T02:56:07.694Z,0
2017-11-04T02:57:07.369Z,0
2017-11-04T02:58:07.029Z,0
2017-11-04T02:59:07.710Z,0
2017-11-04T03:00:07.352Z,0
2017-11-04T03:01:07.348Z,0
2017-11-04T03:02:07.013Z,0
2017-11-04T03:03:07.020Z,0
2017-11-04T03:04:07.321Z,0
2017-11-04T03:05:07.991Z,0
2017-11-04T03:06:07.006Z,0
2017-11-04T03:07:06.978Z,0
2017-11-04T03:08:07.621Z,0
2017-11-04T03:09:06.972Z,0
2017-11-04T03:10:07.296Z,0
2017-11-04T03:11:07.377Z,0
2017-11-04T03:12:07.602Z,0
2017-11-04T03:13:06.965Z,0
2017-11-04T03:14:07.263Z,0
2017-11-04T03:15:07.097Z,0
2017-11-04T03:16:07.276Z,0
2017-11-04T03:17:07.594Z,0
2017-11-04T03:18:06.602Z,0
2017-11-04T03:19:07.237Z,0
2017-11-04T03:20:06.921Z,0
2017-11-04T03:21:06.899Z,0
2017-11-04T03:22:07.553Z,0
2017-11-04T03:23:07.547Z,0
2017-11-04T03:24:06.890Z,0
2017-11-04T03:25:07.226Z,0
2017-11-04T03:26:07.200Z,0
2017-11-04T03:27:07.242Z,0
2017-11-04T03:28:06.881Z,0
2017-11-04T03:29:07.192Z,0
2017-11-04T03:30:07.187Z,0
2017-11-04T03:31:06.856Z,0
2017-11-04T03:32:06.844Z,0
2017-11-04T03:33:06.838Z,0
2017-11-04T03:34:07.476Z,0
2017-11-04T03:35:06.834Z,0
2017-11-04T03:36:07.142Z,0
2017-11-04T03:37:07.145Z,0
2017-11-04T03:38:07.131Z,0
2017-11-04T03:39:07.131Z,0
2017-11-04T03:40:07.123Z,0
2017-11-04T03:41:06.832Z,0
2017-11-04T03:42:07.446Z,0
2017-11-04T03:43:06.783Z,0
2017-11-04T03:44:07.112Z,0
2017-11-04T03:45:09.329Z,0
2017-11-04T03:46:06.764Z,0
2017-11-04T03:47:07.399Z,0
2017-11-04T03:48:07.090Z,0
2017-11-04T03:49:06.754Z,0
2017-11-04T03:50:07.069Z,0
2017-11-04T03:51:07.395Z,0
2017-11-04T03:52:06.729Z,0
2017-11-04T03:53:07.049Z,0
2017-11-04T03:54:07.049Z,0
2017-11-04T03:55:07.364Z,0
2017-11-04T03:56:07.353Z,0
2017-11-04T03:57:07.352Z,0
2017-11-04T03:58:07.345Z,0
2017-11-04T03:59:07.022Z,0
2017-11-04T04:00:06.743Z,0
2017-11-04T04:01:07.021Z,0
2017-11-04T04:02:07.314Z,0
2017-11-04T04:03:06.683Z,0
2017-11-04T04:04:06.671Z,0
2017-11-04T04:05:06.657Z,0
2017-11-04T04:06:06.973Z,0
2017-11-04T04:07:06.986Z,0
2017-11-04T04:08:05.994Z,0
2017-11-04T04:09:07.284Z,0
2017-11-04T04:10:06.962Z,0
2017-11-04T04:11:06.951Z,0
2017-11-04T04:12:07.257Z,0
2017-11-04T04:13:06.938Z,0
2017-11-04T04:14:06.606Z,0
2017-11-04T04:15:08.650Z,0
2017-11-04T04:16:06.275Z,0
2017-11-04T04:17:06.596Z,0
2017-11-04T04:18:06.589Z,0
2017-11-04T04:19:07.217Z,0
2017-11-04T04:20:06.922Z,0
2017-11-04T04:21:06.568Z,0
2017-11-04T04:22:06.239Z,0
2017-11-04T04:23:07.216Z,0
2017-11-04T04:24:06.543Z,0
2017-11-04T04:25:06.863Z,0
2017-11-04T04:26:06.852Z,0
2017-11-04T04:27:06.846Z,0
2017-11-04T04:28:06.851Z,0
2017-11-04T04:29:06.833Z,0
2017-11-04T04:30:07.151Z,0
2017-11-04T04:31:06.504Z,0
2017-11-04T04:32:07.137Z,0
2017-11-04T04:33:06.489Z,0
2017-11-04T04:34:07.139Z,0
2017-11-04T04:35:06.481Z,0
2017-11-04T04:36:06.480Z,0
2017-11-04T04:37:06.801Z,0
2017-11-04T04:38:06.461Z,0
2017-11-04T04:39:06.784Z,0
2017-11-04T04:40:06.769Z,0
2017-11-04T04:41:07.104Z,0
2017-11-04T04:42:06.443Z,0
2017-11-04T04:43:06.764Z,0
2017-11-04T04:44:06.754Z,0
2017-11-04T04:45:07.074Z,0
2017-11-04T04:46:06.627Z,0
2017-11-04T04:47:06.729Z,0
2017-11-04T04:48:06.417Z,0
2017-11-04T04:49:06.728Z,0
2017-11-04T04:50:06.084Z,0
2017-11-04T04:51:06.069Z,0
2017-11-04T04:52:06.720Z,0
2017-11-04T04:53:06.698Z,0
2017-11-04T04:54:06.691Z,0
2017-11-04T04:55:06.698Z,0
2017-11-04T04:56:07.024Z,0
2017-11-04T04:57:06.682Z,0
2017-11-04T04:58:06.673Z,0
2017-11-04T04:59:06.361Z,0
2017-11-04T05:00:06.357Z,0
2017-11-04T05:01:09.030Z,0
2017-11-04T05:02:06.988Z,0
2017-11-04T05:03:06.642Z,0
2017-11-04T05:04:06.317Z,0
2017-11-04T05:05:06.636Z,0
2017-11-04T05:06:06.315Z,0
2017-11-04T05:07:06.632Z,0
2017-11-04T05:08:06.304Z,0
2017-11-04T05:09:06.931Z,0
2017-11-04T05:10:06.934Z,0
2017-11-04T05:11:06.915Z,0
2017-11-04T05:12:06.938Z,0
2017-11-04T05:13:06.914Z,0
2017-11-04T05:14:06.900Z,0
2017-11-04T05:15:06.257Z,0
2017-11-04T05:16:09.753Z,0
2017-11-04T05:17:06.599Z,0
2017-11-04T05:18:06.888Z,0
2017-11-04T05:19:06.550Z,0
2017-11-04T05:20:06.229Z,0
2017-11-04T05:21:05.907Z,0
2017-11-04T05:22:06.539Z,0
2017-11-04T05:23:06.207Z,0
2017-11-04T05:24:06.860Z,0
2017-11-04T05:25:06.520Z,0
2017-11-04T05:26:06.194Z,0
2017-11-04T05:27:06.208Z,0
2017-11-04T05:28:06.193Z,0
2017-11-04T05:29:06.526Z,0
2017-11-04T05:30:06.509Z,0
2017-11-04T05:31:06.804Z,0
2017-11-04T05:32:06.152Z,0
2017-11-04T05:33:06.483Z,0
2017-11-04T05:34:06.145Z,0
2017-11-04T05:35:06.785Z,0
2017-11-04T05:36:06.452Z,0
2017-11-04T05:37:05.817Z,0
2017-11-04T05:38:06.464Z,0
2017-11-04T05:39:06.450Z,0
2017-11-04T05:40:06.105Z,0
2017-11-04T05:41:06.748Z,0
2017-11-04T05:42:06.093Z,0
2017-11-04T05:43:06.747Z,0
2017-11-04T05:44:06.734Z,0
2017-11-04T05:45:06.408Z,0
2017-11-04T05:46:08.258Z,0
2017-11-04T05:47:06.728Z,0
2017-11-04T05:48:06.064Z,0
2017-11-04T05:49:06.057Z,0
2017-11-04T05:50:06.692Z,0
2017-11-04T05:51:06.376Z,0
2017-11-04T05:52:06.692Z,0
2017-11-04T05:53:06.687Z,0
2017-11-04T05:54:06.347Z,0
2017-11-04T05:55:05.695Z,0
2017-11-04T05:56:06.680Z,0
2017-11-04T05:57:06.338Z,0
2017-11-04T05:58:06.023Z,0
2017-11-04T05:59:05.992Z,0
2017-11-04T06:00:05.986Z,0
2017-11-04T06:01:06.630Z,0
2017-11-04T06:02:08.374Z,0
2017-11-04T06:03:06.299Z,0
2017-11-04T06:04:05.652Z,0
2017-11-04T06:05:06.604Z,0
2017-11-04T06:06:06.296Z,0
2017-11-04T06:07:05.955Z,0
2017-11-04T06:08:05.938Z,0
2017-11-04T06:09:06.263Z,0
2017-11-04T06:10:06.587Z,0
2017-11-04T06:11:06.271Z,0
2017-11-04T06:12:05.611Z,0
2017-11-04T06:13:06.565Z,0
2017-11-04T06:14:05.915Z,0
2017-11-04T06:15:06.241Z,0
2017-11-04T06:16:06.220Z,0
2017-11-04T06:17:06.652Z,0
2017-11-04T06:18:05.904Z,0
2017-11-04T06:19:06.215Z,0
2017-11-04T06:20:06.220Z,0
2017-11-04T06:21:06.518Z,0
2017-11-04T06:22:06.194Z,0
2017-11-04T06:23:06.206Z,5
2017-11-04T06:24:05.848Z,5
2017-11-04T06:25:05.862Z,5
2017-11-04T06:26:05.842Z,5
2017-11-04T06:27:05.836Z,5
2017-11-04T06:28:05.827Z,5
2017-11-04T06:29:05.500Z,5
2017-11-04T06:30:05.508Z,5
2017-11-04T06:31:06.155Z,10
2017-11-04T06:32:07.659Z,10
2017-11-04T06:33:06.136Z,10
2017-11-04T06:34:06.443Z,10
2017-11-04T06:35:05.462Z,10
2017-11-04T06:36:06.101Z,10
2017-11-04T06:37:05.787Z,10
2017-11-04T06:38:06.095Z,15
2017-11-04T06:39:06.083Z,15
2017-11-04T06:40:06.085Z,15
2017-11-04T06:41:06.078Z,15
2017-11-04T06:42:06.072Z,15
2017-11-04T06:43:05.752Z,15
2017-11-04T06:44:06.407Z,20
2017-11-04T06:45:05.740Z,20
2017-11-04T06:46:06.061Z,20
2017-11-04T06:47:09.200Z,20
2017-11-04T06:48:05.718Z,20
2017-11-04T06:49:05.713Z,20
2017-11-04T06:50:05.376Z,20
2017-11-04T06:51:06.039Z,20
2017-11-04T06:52:06.012Z,20
2017-11-04T06:53:06.347Z,20
2017-11-04T06:54:05.360Z,20
2017-11-04T06:55:05.998Z,25
2017-11-04T06:56:06.318Z,25
2017-11-04T06:57:05.342Z,25
2017-11-04T06:58:06.010Z,25
2017-11-04T06:59:06.299Z,25
2017-11-04T07:00:05.644Z,25
2017-11-04T07:01:05.314Z,25
2017-11-04T07:02:06.557Z,25
2017-11-04T07:03:05.997Z,25
2017-11-04T07:04:05.340Z,25
2017-11-04T07:05:05.936Z,25
2017-11-04T07:06:05.984Z,25
2017-11-04T07:07:05.285Z,30
2017-11-04T07:08:05.945Z,30
2017-11-04T07:09:06.247Z,30
2017-11-04T07:10:06.239Z,30
2017-11-04T07:11:05.913Z,30
2017-11-04T07:12:06.241Z,35
2017-11-04T07:13:05.920Z,35
2017-11-04T07:14:05.890Z,35
2017-11-04T07:15:05.583Z,35
2017-11-04T07:16:05.881Z,40
2017-11-04T07:17:05.890Z,40
2017-11-04T07:18:06.187Z,40
2017-11-04T07:19:06.181Z,40
2017-11-04T07:20:05.853Z,40
2017-11-04T07:21:05.534Z,45
2017-11-04T07:22:05.865Z,45
2017-11-04T07:23:06.167Z,45
2017-11-04T07:24:06.160Z,45
2017-11-04T07:25:06.166Z,45
2017-11-04T07:26:06.167Z,50
2017-11-04T07:27:06.150Z,50
2017-11-04T07:28:05.500Z,50
2017-11-04T07:29:05.809Z,45
2017-11-04T07:30:04.840Z,50
2017-11-04T07:31:05.164Z,50
2017-11-04T07:32:05.154Z,50
2017-11-04T07:33:05.511Z,55
2017-11-04T07:34:05.847Z,55
2017-11-04T07:35:05.823Z,55
2017-11-04T07:36:05.460Z,60
2017-11-04T07:37:05.758Z,60
2017-11-04T07:38:05.810Z,60
2017-11-04T07:39:06.138Z,65
2017-11-04T07:40:05.770Z,65
2017-11-04T07:41:05.748Z,65
2017-11-04T07:42:05.750Z,65
2017-11-04T07:43:05.734Z,70
2017-11-04T07:44:05.732Z,70
2017-11-04T07:45:05.729Z,70
2017-11-04T07:46:05.091Z,70
2017-11-04T07:47:05.395Z,70
2017-11-04T07:48:07.925Z,70
2017-11-04T07:49:04.751Z,70
2017-11-04T07:50:06.023Z,70
2017-11-04T07:51:05.376Z,70
2017-11-04T07:52:06.010Z,75
2017-11-04T07:53:06.026Z,75
2017-11-04T07:54:05.040Z,75
2017-11-04T07:55:05.700Z,75
2017-11-04T07:56:05.360Z,75
2017-11-04T07:57:05.677Z,75
2017-11-04T07:58:05.337Z,75
2017-11-04T07:59:05.663Z,75
2017-11-04T08:00:05.031Z,70
2017-11-04T08:01:05.647Z,70
2017-11-04T08:02:05.681Z,70
2017-11-04T08:03:07.310Z,70
2017-11-04T08:04:05.653Z,70
2017-11-04T08:05:05.337Z,75
2017-11-04T08:06:05.641Z,75
2017-11-04T08:07:05.622Z,75
2017-11-04T08:08:05.340Z,75
2017-11-04T08:09:05.663Z,75
2017-11-04T08:10:05.617Z,75
2017-11-04T08:11:05.922Z,75
2017-11-04T08:12:04.975Z,75
2017-11-04T08:13:05.987Z,80
2017-11-04T08:14:04.946Z,80
2017-11-04T08:15:05.585Z,80
2017-11-04T08:16:05.928Z,80
2017-11-04T08:17:05.581Z,85
2017-11-04T08:18:09.038Z,85
2017-11-04T08:19:05.580Z,85
2017-11-04T08:20:05.255Z,85
2017-11-04T08:21:05.892Z,90
2017-11-04T08:22:04.916Z,90
2017-11-04T08:23:04.909Z,95
2017-11-04T08:24:05.236Z,95
2017-11-04T08:25:05.587Z,95
2017-11-04T08:26:05.541Z,100
2017-11-04T08:27:05.793Z,105
2017-11-04T08:28:05.213Z,105
2017-11-04T08:29:05.206Z,110
2017-11-04T08:30:05.830Z,115
2017-11-04T08:31:05.517Z,115
2017-11-04T08:32:05.862Z,120
2017-11-04T08:33:05.182Z,120
2017-11-04T08:34:04.854Z,125
2017-11-04T08:35:05.172Z,130
2017-11-04T08:36:04.546Z,130
2017-11-04T08:37:05.494Z,130
2017-11-04T08:38:05.495Z,130
2017-11-04T08:39:05.494Z,130
2017-11-04T08:40:05.204Z,135
2017-11-04T08:41:05.812Z,135
2017-11-04T08:42:05.462Z,135
2017-11-04T08:43:05.145Z,135
2017-11-04T08:44:05.510Z,140
2017-11-04T08:45:05.515Z,145
2017-11-04T08:46:04.812Z,150
2017-11-04T08:47:05.130Z,165
2017-11-04T08:48:05.124Z,160
2017-11-04T08:49:05.452Z,160
2017-11-04T08:50:05.836Z,165
2017-11-04T08:51:05.449Z,160
2017-11-04T08:52:04.786Z,165
2017-11-04T08:53:05.106Z,165
2017-11-04T08:54:05.424Z,165
2017-11-04T08:55:05.096Z,165
2017-11-04T08:56:04.779Z,170
2017-11-04T08:57:05.096Z,170
2017-11-04T08:58:05.083Z,165
2017-11-04T08:59:06.206Z,170
2017-11-04T09:00:05.771Z,175
2017-11-04T09:01:05.403Z,170
2017-11-04T09:02:04.782Z,175
2017-11-04T09:03:04.745Z,175
2017-11-04T09:04:05.117Z,165
2017-11-04T09:05:04.747Z,160
2017-11-04T09:06:05.386Z,155
2017-11-04T09:07:05.377Z,160
2017-11-04T09:08:05.070Z,160
2017-11-04T09:09:04.413Z,160
2017-11-04T09:10:05.074Z,165
2017-11-04T09:11:05.055Z,165
2017-11-04T09:12:05.377Z,170
2017-11-04T09:13:05.390Z,165
2017-11-04T09:14:05.038Z,165
2017-11-04T09:15:05.053Z,160
2017-11-04T09:16:05.364Z,165
2017-11-04T09:17:05.115Z,160
2017-11-04T09:18:05.037Z,160
2017-11-04T09:19:06.926Z,160
2017-11-04T09:20:05.033Z,155
2017-11-04T09:21:05.429Z,150
2017-11-04T09:22:04.704Z,150
2017-11-04T09:23:05.018Z,150
2017-11-04T09:24:05.668Z,150
2017-11-04T09:25:05.028Z,150
2017-11-04T09:26:05.754Z,155
2017-11-04T09:27:04.380Z,150
2017-11-04T09:28:05.326Z,150
2017-11-04T09:29:05.695Z,155
2017-11-04T09:30:05.344Z,155
2017-11-04T09:31:05.027Z,155
2017-11-04T09:32:05.323Z,155
2017-11-04T09:33:05.633Z,155
2017-11-04T09:34:05.310Z,155
2017-11-04T09:35:05.313Z,155
2017-11-04T09:36:05.308Z,160
2017-11-04T09:37:04.979Z,155
2017-11-04T09:38:05.673Z,165
2017-11-04T09:39:04.978Z,160
2017-11-04T09:40:05.303Z,165
2017-11-04T09:41:05.289Z,160
2017-11-04T09:42:05.292Z,165
2017-11-04T09:43:05.291Z,170
2017-11-04T09:44:04.971Z,170
2017-11-04T09:45:05.308Z,160
2017-11-04T09:46:05.297Z,165
2017-11-04T09:47:05.299Z,165
2017-11-04T09:48:04.947Z,165
2017-11-04T09:49:05.299Z,165
2017-11-04T09:50:05.529Z,170
2017-11-04T09:51:05.265Z,175
2017-11-04T09:52:05.261Z,180
2017-11-04T09:53:04.946Z,180
2017-11-04T09:54:05.264Z,180
2017-11-04T09:55:05.589Z,190
2017-11-04T09:56:04.936Z,180
2017-11-04T09:57:04.944Z,180
2017-11-04T09:58:04.933Z,175
2017-11-04T09:59:05.242Z,175
2017-11-04T10:00:05.577Z,175
2017-11-04T10:01:04.930Z,180
2017-11-04T10:02:04.927Z,180
2017-11-04T10:03:04.939Z,185
2017-11-04T10:04:04.592Z,190
2017-11-04T10:05:04.912Z,195
2017-11-04T10:06:04.598Z,195
2017-11-04T10:07:04.920Z,200
2017-11-04T10:08:05.235Z,205
2017-11-04T10:09:05.545Z,210
2017-11-04T10:10:04.912Z,210
2017-11-04T10:11:04.579Z,200
2017-11-04T10:12:04.903Z,195
2017-11-04T10:13:04.894Z,205
2017-11-04T10:14:04.562Z,205
2017-11-04T10:15:04.883Z,200
2017-11-04T10:16:05.200Z,200
2017-11-04T10:17:05.521Z,190
2017-11-04T10:18:05.207Z,190
2017-11-04T10:19:05.194Z,190
2017-11-04T10:20:08.173Z,195
2017-11-04T10:21:05.198Z,190
2017-11-04T10:22:05.183Z,185
2017-11-04T10:23:05.511Z,190
2017-11-04T10:24:04.860Z,190
2017-11-04T10:25:05.209Z,185
2017-11-04T10:26:05.529Z,190
2017-11-04T10:27:05.176Z,195
2017-11-04T10:28:04.546Z,190
2017-11-04T10:29:05.501Z,190
2017-11-04T10:30:05.172Z,190
2017-11-04T10:31:04.856Z,190
2017-11-04T10:32:05.497Z,190
2017-11-04T10:33:05.173Z,195
2017-11-04T10:34:05.486Z,195
2017-11-04T10:35:05.182Z,195
2017-11-04T10:36:05.179Z,195
2017-11-04T10:37:04.854Z,195
2017-11-04T10:38:05.153Z,200
2017-11-04T10:39:05.172Z,200
2017-11-04T10:40:05.167Z,205
2017-11-04T10:41:05.166Z,205
2017-11-04T10:42:05.166Z,205
2017-11-04T10:43:05.153Z,220
2017-11-04T10:44:04.833Z,210
2017-11-04T10:45:05.503Z,205
2017-11-04T10:46:04.834Z,210
2017-11-04T10:47:04.829Z,210
2017-11-04T10:48:04.826Z,210
2017-11-04T10:49:05.474Z,215
2017-11-04T10:50:09.812Z,210
2017-11-04T10:51:04.835Z,210
2017-11-04T10:52:05.464Z,215
2017-11-04T10:53:04.823Z,225
2017-11-04T10:54:04.504Z,220
2017-11-04T10:55:05.151Z,230
2017-11-04T10:56:04.825Z,230
2017-11-04T10:57:04.818Z,230
2017-11-04T10:58:04.833Z,230
2017-11-04T10:59:04.817Z,230
2017-11-04T11:00:05.138Z,235
2017-11-04T11:01:05.152Z,240
2017-11-04T11:02:05.163Z,210
2017-11-04T11:03:04.832Z,210
2017-11-04T11:04:04.851Z,205
2017-11-04T11:05:05.159Z,205
2017-11-04T11:06:04.496Z,200
2017-11-04T11:07:05.461Z,205
2017-11-04T11:08:04.657Z,225
2017-11-04T11:09:05.515Z,210
2017-11-04T11:10:04.845Z,200
2017-11-04T11:11:05.146Z,195
2017-11-04T11:12:04.822Z,190
2017-11-04T11:13:05.465Z,190
2017-11-04T11:14:05.182Z,190
2017-11-04T11:15:04.499Z,190
2017-11-04T11:16:04.829Z,195
2017-11-04T11:17:04.816Z,200
2017-11-04T11:18:05.471Z,205
2017-11-04T11:19:04.553Z,220
2017-11-04T11:20:05.601Z,240
2017-11-04T11:21:05.141Z,215
2017-11-04T11:22:05.149Z,210
2017-11-04T11:23:05.161Z,215
2017-11-04T11:24:05.139Z,215
2017-11-04T11:25:04.850Z,215
2017-11-04T11:26:05.455Z,205
2017-11-04T11:27:04.847Z,205
2017-11-04T11:28:04.853Z,205
2017-11-04T11:29:05.143Z,205
2017-11-04T11:30:05.138Z,195
2017-11-04T11:31:04.490Z,185
2017-11-04T11:32:05.457Z,185
2017-11-04T11:33:04.819Z,180
2017-11-04T11:34:04.845Z,170
2017-11-04T11:35:04.503Z,170
2017-11-04T11:36:04.509Z,170
2017-11-04T11:37:04.820Z,170
2017-11-04T11:38:05.159Z,170
2017-11-04T11:39:04.500Z,180
2017-11-04T11:40:04.830Z,175
2017-11-04T11:41:05.159Z,175
2017-11-04T11:42:05.178Z,175
2017-11-04T11:43:05.469Z,170
2017-11-04T11:44:05.155Z,170
2017-11-04T11:45:05.176Z,170
2017-11-04T11:46:05.158Z,170
2017-11-04T11:47:04.830Z,175
2017-11-04T11:48:04.497Z,190
2017-11-04T11:49:05.170Z,190
2017-11-04T11:50:05.147Z,190
2017-11-04T11:51:06.922Z,195
2017-11-04T11:52:05.153Z,195
2017-11-04T11:53:05.468Z,200
2017-11-04T11:54:05.155Z,205
2017-11-04T11:55:05.151Z,205
2017-11-04T11:56:05.463Z,205
2017-11-04T11:57:05.136Z,195
2017-11-04T11:58:04.180Z,195
2017-11-04T11:59:05.138Z,195
2017-11-04T12:00:05.142Z,190
2017-11-04T12:01:04.839Z,180
2017-11-04T12:02:04.835Z,175
2017-11-04T12:03:05.143Z,170
2017-11-04T12:04:05.470Z,170
2017-11-04T12:05:05.463Z,170
2017-11-04T12:06:05.143Z,170
2017-11-04T12:07:05.166Z,175
2017-11-04T12:08:04.826Z,180
2017-11-04T12:09:05.486Z,185
2017-11-04T12:10:04.509Z,190
2017-11-04T12:11:05.141Z,195
2017-11-04T12:12:05.145Z,200
2017-11-04T12:13:05.143Z,200
2017-11-04T12:14:04.949Z,200
2017-11-04T12:15:04.826Z,200
2017-11-04T12:16:05.251Z,190
2017-11-04T12:17:04.679Z,190
2017-11-04T12:18:04.598Z,185
2017-11-04T12:19:04.651Z,180
2017-11-04T12:20:05.140Z,180
2017-11-04T12:21:06.245Z,175
2017-11-04T12:22:04.827Z,175
2017-11-04T12:23:05.159Z,170
2017-11-04T12:24:05.476Z,170
2017-11-04T12:25:05.148Z,170
2017-11-04T12:26:05.259Z,170
2017-11-04T12:27:05.164Z,175
2017-11-04T12:28:05.161Z,175
2017-11-04T12:29:04.949Z,180
2017-11-04T12:30:04.590Z,175
2017-11-04T12:31:05.421Z,175
2017-11-04T12:32:04.675Z,175
2017-11-04T12:33:05.422Z,170
2017-11-04T12:34:05.509Z,170
2017-11-04T12:35:05.072Z,170
2017-11-04T12:36:05.626Z,165
2017-11-04T12:37:04.874Z,170
2017-11-04T12:38:04.967Z,170
2017-11-04T12:39:05.496Z,160
2017-11-04T12:40:05.010Z,165
2017-11-04T12:41:05.327Z,165
2017-11-04T12:42:05.366Z,155
2017-11-04T12:43:05.440Z,155
2017-11-04T12:44:05.350Z,155
2017-11-04T12:45:05.243Z,155
2017-11-04T12:46:04.841Z,160
2017-11-04T12:47:04.909Z,155
2017-11-04T12:48:04.213Z,150
2017-11-04T12:49:04.937Z,150
2017-11-04T12:50:04.931Z,160
2017-11-04T12:51:06.288Z,150
2017-11-04T12:52:05.219Z,150
2017-11-04T12:53:04.937Z,145
2017-11-04T12:54:04.869Z,145
2017-11-04T12:55:04.948Z,145
2017-11-04T12:56:05.174Z,145
2017-11-04T12:57:05.169Z,145
2017-11-04T12:58:05.182Z,145
2017-11-04T12:59:05.183Z,150
2017-11-04T13:00:05.169Z,150
2017-11-04T13:01:04.858Z,145
2017-11-04T13:02:04.881Z,145
2017-11-04T13:03:05.189Z,145
2017-11-04T13:04:04.855Z,145
2017-11-04T13:05:04.924Z,145
2017-11-04T13:06:06.353Z,150
2017-11-04T13:07:04.875Z,150
2017-11-04T13:08:04.554Z,150
2017-11-04T13:09:04.872Z,150
2017-11-04T13:10:05.201Z,150
2017-11-04T13:11:04.870Z,150
2017-11-04T13:12:05.519Z,155
2017-11-04T13:13:05.527Z,155
2017-11-04T13:14:04.875Z,155
2017-11-04T13:15:04.874Z,155
2017-11-04T13:16:05.201Z,155
2017-11-04T13:17:05.188Z,155
2017-11-04T13:18:04.629Z,155
2017-11-04T13:19:04.881Z,150
2017-11-04T13:20:04.894Z,150
2017-11-04T13:21:04.888Z,150
2017-11-04T13:22:05.504Z,150
2017-11-04T13:23:05.211Z,150
2017-11-04T13:24:05.205Z,150
2017-11-04T13:25:05.537Z,150
2017-11-04T13:26:04.885Z,150
2017-11-04T13:27:04.892Z,150
2017-11-04T13:28:05.210Z,150
2017-11-04T13:29:04.907Z,150
2017-11-04T13:30:05.227Z,150
2017-11-04T13:31:04.575Z,150
2017-11-04T13:32:05.533Z,150
2017-11-04T13:33:04.250Z,150
2017-11-04T13:34:04.579Z,150
2017-11-04T13:35:05.224Z,145
2017-11-04T13:36:04.900Z,145
2017-11-04T13:37:05.233Z,150
2017-11-04T13:38:05.235Z,145
2017-11-04T13:39:05.241Z,145
2017-11-04T13:40:05.228Z,140
2017-11-04T13:41:05.261Z,135
2017-11-04T13:42:04.920Z,135
2017-11-04T13:43:04.910Z,140
2017-11-04T13:44:05.587Z,140
2017-11-04T13:45:05.560Z,140
2017-11-04T13:46:04.919Z,140
2017-11-04T13:47:04.595Z,140
2017-11-04T13:48:05.241Z,140
2017-11-04T13:49:04.603Z,140
2017-11-04T13:50:04.629Z,140
2017-11-04T13:51:05.256Z,140
2017-11-04T13:52:06.078Z,140
2017-11-04T13:53:04.951Z,140
2017-11-04T13:54:04.608Z,135
2017-11-04T13:55:04.929Z,135
2017-11-04T13:56:05.251Z,135
2017-11-04T13:57:04.628Z,135
2017-11-04T13:58:04.948Z,130
2017-11-04T13:59:04.951Z,130
2017-11-04T14:00:04.952Z,130
2017-11-04T14:01:05.586Z,130
2017-11-04T14:02:05.608Z,125
2017-11-04T14:03:04.934Z,125
2017-11-04T14:04:05.258Z,125
2017-11-04T14:05:04.939Z,125
2017-11-04T14:06:04.964Z,120
2017-11-04T14:07:04.942Z,120
2017-11-04T14:08:05.602Z,120
2017-11-04T14:09:04.942Z,120
2017-11-04T14:10:04.941Z,120
2017-11-04T14:11:04.956Z,120
2017-11-04T14:12:05.288Z,120
2017-11-04T14:13:04.971Z,120
2017-11-04T14:14:05.290Z,115
2017-11-04T14:15:05.277Z,115
2017-11-04T14:16:04.635Z,120